Time;durP1;ratioP1;P1;durP2;ratioP2;P2;SDS_P1;SDS_P2;PMS_P1;PMS_P2;Temp;Humidity;BMP_temperature;BMP_pressure;BME280_temperature;BME280_humidity;BME280_pressure;Samples;Min_cycle;Max_cycle;Signal;HPM_P1;HPM_P2
2023/01/28 01:16:15;;;;;;;74.50;36.70;;;;;;;3.92;80.11;101164.20;104814;1283;24385;-60
2023/01/28 01:18:43;;;;;;;61.80;35.80;;;;;;;3.99;79.33;101159.15;106246;1280;22540;-60
2023/01/28 01:21:14;;;;;;;61.20;35.20;;;;;;;4.04;78.72;101151.81;106777;1273;25488;-60
2023/01/28 01:23:41;;;;;;;58.10;33.90;;;;;;;4.08;78.43;101153.59;106465;1272;376297;-60
2023/01/28 01:26:08;;;;;;;57.90;34.00;;;;;;;4.12;77.79;101152.42;106762;1274;24281;-60
2023/01/28 01:28:36;;;;;;;57.50;33.40;;;;;;;4.13;77.46;101149.18;106820;1270;25408;-60
2023/01/28 01:31:05;;;;;;;59.70;34.90;;;;;;;4.14;77.06;101146.95;106768;1269;22551;-60
2023/01/28 01:33:33;;;;;;;51.80;33.40;;;;;;;4.14;76.72;101140.27;106838;1269;23993;-60
2023/01/28 01:36:00;;;;;;;50.10;32.10;;;;;;;4.14;76.41;101133.05;106780;1269;22595;-60
2023/01/28 01:38:28;;;;;;;57.40;32.90;;;;;;;4.15;76.14;101127.22;106768;1269;25372;-60
2023/01/28 01:40:58;;;;;;;54.10;32.20;;;;;;;4.14;75.80;101122.92;106829;1270;22539;-60
2023/01/28 01:43:25;;;;;;;52.90;30.70;;;;;;;4.14;75.67;101134.25;106015;1259;1003258;-59
2023/01/28 01:45:57;;;;;;;53.90;30.90;;;;;;;4.14;75.43;101121.70;105895;1273;1003529;-59
2023/01/28 01:48:30;;;;;;;53.30;32.10;;;;;;;4.14;75.18;101118.98;106614;1274;25372;-60
2023/01/28 01:51:00;;;;;;;49.80;31.30;;;;;;;4.13;74.98;101117.59;106676;1269;25478;-59
2023/01/28 01:53:28;;;;;;;52.60;31.60;;;;;;;4.11;74.96;101117.06;106642;1270;25451;-60
2023/01/28 01:55:58;;;;;;;47.80;30.90;;;;;;;4.10;74.72;101111.89;105821;1270;1003378;-60
2023/01/28 01:58:28;;;;;;;48.90;29.90;;;;;;;4.10;74.31;101110.69;106347;1257;22565;-61
2023/01/28 02:00:56;;;;;;;50.40;29.80;;;;;;;4.10;74.53;101108.98;106351;1281;24190;-59
2023/01/28 02:03:33;;;;;;;58.40;32.50;;;;;;;4.08;74.09;101105.70;106216;1281;26536;-61
2023/01/28 02:06:01;;;;;;;53.70;32.50;;;;;;;4.06;74.00;101106.02;106231;1273;24770;-60
2023/01/28 02:08:30;;;;;;;54.60;32.20;;;;;;;4.06;73.82;101107.71;106321;1273;25413;-61
2023/01/28 02:11:02;;;;;;;52.00;32.30;;;;;;;4.05;74.07;101114.75;105983;1273;22520;-60
2023/01/28 02:13:34;;;;;;;54.30;30.50;;;;;;;4.04;73.62;101108.90;106233;1275;22525;-59
2023/01/28 02:16:01;;;;;;;46.70;31.20;;;;;;;4.02;73.54;101109.39;106091;1260;22540;-60
2023/01/28 02:18:29;;;;;;;48.40;30.40;;;;;;;4.02;73.51;101099.60;106350;1273;25338;-61
2023/01/28 02:21:17;;;;;;;50.10;29.00;;;;;;;4.02;73.53;101103.55;106295;1274;26656;-59
2023/01/28 02:24:18;;;;;;;45.90;28.10;;;;;;;4.03;73.17;101108.91;106380;1273;25576;-60
2023/01/28 02:26:51;;;;;;;53.80;29.80;;;;;;;4.02;72.82;101104.59;106275;1273;24898;-58
2023/01/28 02:29:46;;;;;;;50.20;29.70;;;;;;;4.00;72.85;101107.64;106239;1275;24376;-59
2023/01/28 02:32:13;;;;;;;49.30;30.60;;;;;;;3.98;72.65;101113.14;106492;1274;25343;-61
2023/01/28 02:34:46;;;;;;;52.80;31.10;;;;;;;3.97;72.81;101115.53;106627;1272;25423;-61
2023/01/28 02:37:20;;;;;;;47.30;29.00;;;;;;;3.98;72.75;101120.00;106880;1266;25495;-59
2023/01/28 02:39:50;;;;;;;50.10;30.30;;;;;;;3.98;72.53;101119.14;106651;1267;22536;-61
2023/01/28 02:42:29;;;;;;;50.80;30.60;;;;;;;3.98;72.43;101115.88;106635;1267;25413;-60
2023/01/28 02:44:57;;;;;;;44.30;29.40;;;;;;;3.97;72.71;101114.32;106633;1272;22524;-59
2023/01/28 02:50:17;;;;;;;45.90;30.10;;;;;;;3.96;72.43;101093.88;106615;1269;25430;-61
2023/01/28 02:56:04;;;;;;;47.10;30.20;;;;;;;3.94;72.71;101090.95;106574;1274;25349;-61
2023/01/28 02:58:59;;;;;;;47.90;30.30;;;;;;;3.92;72.81;101097.80;106777;1268;25308;-59
2023/01/28 03:01:41;;;;;;;48.50;29.20;;;;;;;3.90;72.73;101096.23;106881;1267;25376;-59
2023/01/28 03:04:22;;;;;;;46.60;30.30;;;;;;;3.82;73.17;101100.43;106094;1272;1005417;-59
2023/01/28 03:06:53;;;;;;;44.60;28.30;;;;;;;3.64;73.62;101101.59;106876;1268;26711;-60
2023/01/28 03:09:25;;;;;;;48.10;30.00;;;;;;;3.77;73.37;101103.30;105904;1274;1003270;-60
2023/01/28 03:37:50;;;;;;;44.70;29.20;;;;;;;3.79;73.60;101125.10;106339;1271;25328;-59
2023/01/28 03:40:21;;;;;;;47.10;30.00;;;;;;;3.79;73.48;101123.90;106414;1272;25461;-59
2023/01/28 03:42:51;;;;;;;41.70;27.40;;;;;;;3.81;73.50;101119.98;105838;1274;1002916;-59
2023/01/28 03:45:33;;;;;;;39.90;27.20;;;;;;;3.83;73.25;101116.40;106878;1269;25462;-59
2023/01/28 03:48:01;;;;;;;44.20;28.50;;;;;;;3.83;73.39;101113.83;107133;1267;25363;-59
2023/01/28 03:50:29;;;;;;;45.70;28.20;;;;;;;3.84;73.33;101112.80;106013;1271;1003685;-59
2023/01/28 03:53:10;;;;;;;39.60;27.00;;;;;;;3.84;73.29;101120.02;106768;1271;22541;-59
2023/01/28 03:55:46;;;;;;;41.80;26.70;;;;;;;3.85;73.37;101123.45;106756;1271;25445;-59
2023/01/28 03:58:13;;;;;;;43.80;28.00;;;;;;;3.85;73.46;101126.55;106715;1271;22959;-59
2023/01/28 04:00:41;;;;;;;42.20;26.80;;;;;;;3.85;73.24;101127.41;105741;1271;1005739;-60
2023/01/28 04:03:18;;;;;;;38.40;25.60;;;;;;;3.86;73.16;101128.10;106644;1276;25605;-59
2023/01/28 10:15:21;;;;;;;32.10;23.30;;;;;;;3.39;75.06;101105.56;104618;1292;1002761;-62
2023/01/28 10:17:50;;;;;;;34.70;24.60;;;;;;;3.48;74.77;101103.11;105883;1285;25431;-62
2023/01/28 10:20:19;;;;;;;33.50;24.00;;;;;;;3.50;74.77;101101.41;106319;1282;25368;-61
2023/01/28 10:22:56;;;;;;;32.60;23.60;;;;;;;3.50;74.51;101102.27;106007;1279;25437;-60
2023/01/28 10:25:25;;;;;;;35.60;23.90;;;;;;;3.50;74.63;101098.68;105495;1287;1002923;-60
2023/01/28 10:27:52;;;;;;;39.20;24.70;;;;;;;3.52;74.61;101093.73;106445;1266;141510;-61
2023/01/28 10:30:20;;;;;;;33.60;24.30;;;;;;;3.52;74.39;101093.89;105533;1285;1003039;-61
2023/01/28 10:32:55;;;;;;;30.00;23.30;;;;;;;3.51;74.34;101093.04;106298;1276;26515;-61
2023/01/28 10:35:22;;;;;;;31.80;21.90;;;;;;;3.51;74.42;101092.34;106177;1280;25447;-61
2023/01/28 10:37:51;;;;;;;32.30;22.20;;;;;;;3.51;74.35;101087.02;106195;1279;22553;-61
2023/01/28 10:40:20;;;;;;;30.60;20.70;;;;;;;3.52;74.27;101084.30;106207;1285;25386;-61
2023/01/28 10:42:48;;;;;;;29.30;20.60;;;;;;;3.51;74.10;101085.81;106417;1283;25507;-61
2023/01/28 10:45:26;;;;;;;29.10;21.50;;;;;;;3.51;74.16;101084.45;106297;1282;25422;-61
2023/01/28 10:48:44;;;;;;;32.90;22.00;;;;;;;3.51;74.16;101083.08;105708;1285;1003601;-62
2023/01/28 10:51:11;;;;;;;30.70;21.30;;;;;;;3.52;73.93;101076.23;104957;1288;1003220;-61
2023/01/28 10:53:42;;;;;;;31.40;21.30;;;;;;;3.52;74.05;101074.19;105460;1293;24231;-61
2023/01/28 10:56:30;;;;;;;;;;;;;;;3.52;73.90;101078.63;106406;1285;23999;-62
2023/01/28 10:59:03;;;;;;;31.60;21.80;;;;;;;3.52;73.90;101081.89;105967;1285;25431;-61
2023/01/28 11:01:43;;;;;;;31.80;21.40;;;;;;;3.51;73.88;101085.30;105554;1289;23896;-61
2023/01/28 11:04:24;;;;;;;29.10;20.70;;;;;;;3.52;73.89;101081.89;105583;1293;25484;-60
2023/01/28 11:06:55;;;;;;;30.90;21.40;;;;;;;3.53;74.08;101078.98;105748;1288;23625;-60
2023/01/28 11:09:25;;;;;;;30.00;21.70;;;;;;;3.53;73.88;101078.81;105706;1293;25385;-61
2023/01/28 11:11:52;;;;;;;30.70;20.80;;;;;;;3.56;73.58;101076.11;105502;1295;25436;-62
2023/01/28 11:14:22;;;;;;;32.70;22.50;;;;;;;3.51;74.00;101074.84;105783;1288;25450;-60
2023/01/28 11:16:49;;;;;;;33.00;22.00;;;;;;;3.38;74.35;101071.95;105485;1295;24367;-61
2023/01/28 11:19:19;;;;;;;38.00;23.20;;;;;;;3.37;74.50;101075.19;105578;1292;25378;-61
2023/01/28 11:21:52;;;;;;;39.00;25.00;;;;;;;3.36;74.82;101073.30;105676;1294;23503;-61
2023/01/28 11:24:25;;;;;;;36.40;23.40;;;;;;;3.36;74.67;101072.27;105931;1289;23415;-62
2023/01/28 11:26:53;;;;;;;41.10;25.20;;;;;;;3.36;74.63;101067.30;106221;1277;25438;-62
2023/01/28 11:29:31;;;;;;;45.40;27.10;;;;;;;3.37;74.53;101069.03;106113;1286;22547;-60
2023/01/28 11:31:58;;;;;;;34.70;23.70;;;;;;;3.34;74.79;101069.16;106072;1286;24759;-61
2023/01/28 11:34:28;;;;;;;31.10;22.20;;;;;;;3.22;75.29;101070.04;106298;1280;22543;-61
2023/01/28 11:37:02;;;;;;;30.90;21.10;;;;;;;3.30;74.90;101064.98;106500;1272;25418;-61
2023/01/28 11:39:30;;;;;;;31.50;21.30;;;;;;;3.34;74.71;101069.15;106751;1273;22555;-61
2023/01/28 11:42:15;;;;;;;29.60;21.20;;;;;;;3.44;74.48;101067.91;106641;1277;25361;-61
2023/01/28 11:44:44;;;;;;;29.00;20.70;;;;;;;3.49;74.32;101070.20;106792;1273;26701;-61
2023/01/28 11:47:43;;;;;;;29.10;21.10;;;;;;;3.52;74.48;101069.38;105777;1263;1005549;-61
2023/01/28 11:50:26;;;;;;;31.80;19.60;;;;;;;3.55;74.52;101068.38;106627;1273;22526;-61
2023/01/28 11:53:04;;;;;;;30.40;21.30;;;;;;;3.56;74.31;101070.11;106734;1276;22538;-61
2023/01/28 11:55:46;;;;;;;30.60;21.00;;;;;;;3.56;74.19;101070.11;106980;1270;26530;-61
2023/01/28 11:58:35;;;;;;;28.50;20.30;;;;;;;3.56;74.23;101072.51;106889;1271;22521;-60
2023/01/28 12:01:23;;;;;;;27.40;20.60;;;;;;;3.57;74.28;101069.77;106778;1274;25469;-60
2023/01/28 12:04:19;;;;;;;26.70;21.10;;;;;;;3.56;74.15;101072.70;106050;1273;1003300;-60
2023/01/28 12:07:01;;;;;;;29.00;20.30;;;;;;;3.56;74.25;101077.15;106867;1273;25536;-60
2023/01/28 12:09:35;;;;;;;28.80;20.30;;;;;;;3.57;74.38;101074.58;106544;1279;26516;-61
2023/01/28 12:12:11;;;;;;;30.00;21.30;;;;;;;3.57;74.10;101076.11;106445;1279;22756;-60
2023/01/28 12:15:14;;;;;;;31.40;22.50;;;;;;;3.57;74.18;101075.77;105964;1273;1003072;-61
2023/01/28 12:17:57;;;;;;;36.60;24.90;;;;;;;3.58;74.21;101077.52;105950;1283;22537;-60
2023/01/28 12:20:27;;;;;;;27.20;20.50;;;;;;;3.57;74.40;101075.45;106454;1280;22534;-60
2023/01/28 12:23:15;;;;;;;25.60;19.00;;;;;;;3.58;74.41;101076.48;106391;1280;25427;-60
2023/01/28 12:26:22;;;;;;;27.80;19.80;;;;;;;3.59;74.43;101081.81;105560;1277;1003014;-61
2023/01/28 12:29:05;;;;;;;29.40;19.70;;;;;;;3.61;74.50;101084.23;106077;1285;25450;-60
2023/01/28 12:31:32;;;;;;;28.10;20.30;;;;;;;3.63;74.55;101088.73;106302;1279;26503;-61
2023/01/28 12:34:21;;;;;;;27.10;20.90;;;;;;;3.63;74.37;101088.88;106076;1285;25350;-61
2023/01/28 12:36:58;;;;;;;26.80;19.20;;;;;;;3.64;74.52;101095.41;106132;1282;25347;-61
2023/01/28 12:39:49;;;;;;;27.10;19.60;;;;;;;3.66;74.46;101097.33;106322;1262;22540;-61
2023/01/28 12:42:36;;;;;;;25.80;18.60;;;;;;;3.67;74.49;101100.77;105822;1278;1014914;-64
2023/01/28 12:45:27;;;;;;;26.00;19.80;;;;;;;3.68;74.57;101102.00;106550;1278;24244;-62
2023/01/28 12:48:10;;;;;;;25.30;19.10;;;;;;;3.70;74.43;101106.48;105694;1270;1003235;-62
2023/01/28 12:50:46;;;;;;;29.90;19.10;;;;;;;3.70;74.60;101111.98;106353;1282;25344;-61
2023/01/28 12:53:18;;;;;;;27.20;20.50;;;;;;;3.72;74.95;101117.65;106009;1285;24408;-61
2023/01/28 12:56:14;;;;;;;32.80;22.90;;;;;;;3.73;75.00;101115.60;106844;1276;25406;-61
2023/01/28 12:58:49;;;;;;;28.50;20.60;;;;;;;3.75;75.35;101117.16;105664;1276;1003066;-61
2023/01/28 13:01:20;;;;;;;31.20;22.80;;;;;;;3.76;75.06;101117.70;106029;1280;25506;-64
2023/01/28 13:03:55;;;;;;;26.70;20.20;;;;;;;3.75;74.99;101119.57;106026;1282;22599;-61
2023/01/28 13:09:19;;;;;;;27.00;19.40;;;;;;;2.97;78.47;101128.40;105159;1282;1002879;-55
2023/01/28 13:11:50;;;;;;;28.90;20.60;;;;;;;3.62;75.59;101129.88;106002;1283;25518;-56
2023/01/28 13:14:26;;;;;;;32.20;21.50;;;;;;;3.66;75.38;101132.67;105951;1283;25496;-55
2023/01/28 13:16:54;;;;;;;38.80;25.40;;;;;;;3.68;75.41;101132.36;105758;1282;25523;-55
2023/01/28 13:19:23;;;;;;;34.80;22.60;;;;;;;3.54;75.98;101133.89;105026;1283;1003452;-57
2023/01/28 13:21:51;;;;;;;29.00;21.40;;;;;;;3.46;75.83;101135.67;106187;1278;204854;-55
2023/01/28 13:24:21;;;;;;;29.30;21.60;;;;;;;3.43;76.18;101135.13;106456;1272;25342;-55
2023/01/28 13:26:54;;;;;;;29.10;21.00;;;;;;;3.43;76.07;101136.48;106767;1254;22555;-55
2023/01/28 13:29:23;;;;;;;32.70;20.90;;;;;;;3.43;76.06;101141.28;106667;1269;25291;-54
2023/01/28 13:31:53;;;;;;;35.00;21.40;;;;;;;3.55;75.47;101140.41;106861;1273;22649;-54
2023/01/28 13:34:32;;;;;;;27.20;19.50;;;;;;;3.63;74.90;101140.17;106905;1269;22543;-54
2023/01/28 13:37:03;;;;;;;29.40;20.70;;;;;;;3.65;74.74;101146.71;106555;1277;22526;-54
2023/01/28 13:39:33;;;;;;;28.50;20.10;;;;;;;3.66;74.74;101150.67;106910;1268;25379;-55
2023/01/28 13:42:26;;;;;;;28.70;19.30;;;;;;;3.66;74.49;101153.08;106848;1258;25647;-54
2023/01/28 13:44:54;;;;;;;27.80;19.80;;;;;;;3.65;74.47;101152.03;106701;1273;25341;-54
2023/01/28 13:47:24;;;;;;;27.40;19.80;;;;;;;3.65;74.59;101154.27;106151;1271;1003302;-54
2023/01/28 13:50:00;;;;;;;28.90;19.40;;;;;;;3.62;74.66;101159.20;107074;1269;25410;-54
2023/01/28 13:52:31;;;;;;;29.40;20.10;;;;;;;3.64;74.36;101161.13;107171;1268;25406;-55
2023/01/28 13:55:02;;;;;;;29.60;20.20;;;;;;;3.65;74.67;101164.55;107056;1266;24384;-54
2023/01/28 13:58:00;;;;;;;33.10;20.70;;;;;;;3.63;74.70;101162.83;107098;1266;24680;-55
2023/01/28 14:01:05;;;;;;;33.70;23.00;;;;;;;3.60;75.08;101169.31;107483;1268;25389;-55
2023/01/28 14:03:51;;;;;;;27.50;20.70;;;;;;;3.62;75.22;101168.80;107229;1266;25381;-55
2023/01/28 14:07:16;;;;;;;27.70;20.00;;;;;;;3.63;75.32;101176.03;107035;1267;25333;-57
2023/01/28 14:10:02;;;;;;;31.40;20.90;;;;;;;3.62;75.48;101176.70;106842;1273;25408;-54
2023/01/28 14:12:51;;;;;;;32.00;22.10;;;;;;;3.63;75.74;101177.05;106620;1280;23868;-54
2023/01/28 14:15:21;;;;;;;30.20;21.00;;;;;;;3.62;75.95;101175.33;106153;1272;1003593;-57
2023/01/28 14:17:53;;;;;;;30.30;22.20;;;;;;;3.63;76.11;101180.98;106908;1266;25341;-56
2023/01/28 14:20:31;;;;;;;31.90;21.30;;;;;;;3.61;76.15;101177.55;106784;1277;22534;-56
2023/01/28 14:23:01;;;;;;;32.30;20.80;;;;;;;3.60;76.22;101179.94;106674;1280;22530;-55
2023/01/28 14:25:32;;;;;;;28.20;20.70;;;;;;;3.59;76.18;101182.83;106962;1273;22675;-56
2023/01/28 14:27:59;;;;;;;26.70;19.30;;;;;;;3.58;76.34;101186.09;106947;1272;25354;-56
2023/01/28 14:30:53;;;;;;;26.20;20.20;;;;;;;3.60;76.50;101191.09;106724;1277;25312;-57
2023/01/28 14:33:20;;;;;;;29.00;20.10;;;;;;;3.51;76.64;101197.14;106287;1281;25446;-57
2023/01/28 14:35:48;;;;;;;30.70;19.20;;;;;;;3.49;76.92;101198.15;106126;1278;25338;-57
2023/01/28 14:38:19;;;;;;;28.90;20.10;;;;;;;3.48;77.03;101194.52;106261;1279;25415;-58
2023/01/28 14:40:52;;;;;;;39.10;23.20;;;;;;;3.47;77.30;101198.79;106496;1274;22536;-58
2023/01/28 14:43:21;;;;;;;28.70;20.10;;;;;;;3.44;77.30;101203.22;106643;1275;26512;-58
2023/01/28 14:46:20;;;;;;;26.80;18.30;;;;;;;3.36;77.83;101203.61;105949;1275;1002718;-59
2023/01/28 14:49:32;;;;;;;30.60;20.00;;;;;;;3.33;77.87;101209.23;106759;1268;22532;-60
2023/01/28 14:52:19;;;;;;;33.40;22.10;;;;;;;3.34;77.81;101208.73;106309;1279;25392;-60
2023/01/28 14:54:52;;;;;;;31.30;21.60;;;;;;;3.44;77.63;101210.59;106121;1283;25614;-59
2023/01/28 14:57:26;;;;;;;29.10;21.60;;;;;;;3.46;77.33;101208.56;106523;1272;24445;-59
2023/01/28 19:16:45;;;;;;;53.70;36.50;;;;;;;2.73;85.51;101372.05;104906;1283;22665;-60
2023/01/28 19:19:13;;;;;;;47.40;33.80;;;;;;;2.82;84.79;101371.86;105851;1288;23873;-59
2023/01/28 19:21:41;;;;;;;47.80;34.80;;;;;;;2.87;83.95;101372.99;106224;1282;22944;-60
2023/01/28 19:24:10;;;;;;;45.30;31.80;;;;;;;2.93;83.64;101371.41;106011;1280;364208;-60
2023/01/28 19:26:37;;;;;;;45.50;31.90;;;;;;;3.01;83.42;101372.73;106315;1285;22687;-60
2023/01/28 19:29:08;;;;;;;40.20;28.60;;;;;;;3.08;83.05;101376.48;106420;1279;25542;-59
2023/01/28 19:31:36;;;;;;;40.20;29.00;;;;;;;3.12;82.53;101379.46;105969;1285;25338;-60
2023/01/28 19:34:04;;;;;;;37.90;27.90;;;;;;;3.15;81.79;101382.61;106346;1279;25443;-59
2023/01/28 19:36:32;;;;;;;33.40;25.20;;;;;;;3.17;81.49;101385.04;106196;1279;26640;-61
2023/01/28 19:39:00;;;;;;;34.10;25.90;;;;;;;3.20;81.22;101379.78;106092;1285;24199;-61
2023/01/28 19:41:28;;;;;;;34.70;25.30;;;;;;;3.21;80.75;101378.09;106164;1280;25435;-59
2023/01/28 19:43:56;;;;;;;35.70;25.40;;;;;;;3.23;80.74;101381.23;105708;1286;25435;-61
2023/01/28 19:46:24;;;;;;;32.50;23.30;;;;;;;3.23;80.36;101384.48;106089;1282;22540;-60
2023/01/28 19:48:52;;;;;;;32.00;24.70;;;;;;;3.22;80.27;101386.70;105906;1282;24198;-61
2023/01/28 19:51:19;;;;;;;33.10;24.30;;;;;;;3.25;80.46;101384.00;105770;1282;26521;-61
2023/01/28 19:53:49;;;;;;;30.70;22.50;;;;;;;3.26;79.87;101387.80;105850;1283;22543;-60
2023/01/28 19:56:17;;;;;;;30.10;23.10;;;;;;;3.27;79.63;101387.14;105182;1278;1003851;-60
2023/01/28 19:58:44;;;;;;;29.90;22.90;;;;;;;3.28;79.68;101387.98;106312;1282;22536;-61
2023/01/28 20:01:19;;;;;;;34.70;23.90;;;;;;;3.29;79.61;101384.92;106178;1279;25297;-59
2023/01/28 20:03:54;;;;;;;29.50;22.40;;;;;;;3.34;79.14;101388.27;105958;1283;25504;-59
2023/01/28 20:06:22;;;;;;;32.40;22.40;;;;;;;3.35;78.92;101384.50;106013;1284;22574;-58
2023/01/28 20:09:05;;;;;;;28.70;21.70;;;;;;;3.36;78.58;101390.02;106213;1280;22587;-60
2023/01/28 20:11:33;;;;;;;27.80;21.60;;;;;;;3.37;78.57;101390.90;105395;1280;1003021;-60
2023/01/28 20:14:00;;;;;;;28.50;21.40;;;;;;;3.37;78.22;101396.55;106424;1276;22541;-59
2023/01/28 20:16:28;;;;;;;31.60;22.80;;;;;;;3.38;78.13;101398.79;105999;1272;1003781;-59
2023/01/28 20:18:57;;;;;;;34.80;25.10;;;;;;;3.36;77.79;101398.77;106001;1270;1003586;-59
2023/01/28 20:21:24;;;;;;;28.80;21.60;;;;;;;3.35;77.51;101399.77;105939;1272;1003405;-60
2023/01/28 20:23:52;;;;;;;29.00;20.90;;;;;;;3.33;77.59;101397.69;106596;1270;25352;-59
2023/01/28 20:26:22;;;;;;;32.00;22.90;;;;;;;3.31;77.26;101397.48;106512;1276;22628;-59
2023/01/28 20:28:49;;;;;;;34.70;25.30;;;;;;;3.30;77.25;101400.38;106376;1270;23874;-59
2023/01/28 20:31:17;;;;;;;32.80;23.00;;;;;;;3.28;77.06;101399.84;106713;1270;25375;-60
2023/01/28 20:33:45;;;;;;;32.60;23.50;;;;;;;3.27;77.01;101402.05;106780;1270;25267;-61
2023/01/28 20:36:12;;;;;;;31.90;22.90;;;;;;;3.27;76.81;101405.64;106738;1270;24454;-59
2023/01/28 20:38:41;;;;;;;31.30;23.80;;;;;;;3.26;76.91;101406.14;106698;1275;25274;-60
2023/01/28 20:41:11;;;;;;;31.10;22.60;;;;;;;3.26;76.67;101406.13;106336;1277;22554;-58
2023/01/28 20:43:39;;;;;;;30.50;22.10;;;;;;;3.26;76.45;101412.48;106684;1270;22523;-58
2023/01/28 20:46:13;;;;;;;31.80;22.10;;;;;;;3.26;76.46;101411.61;106259;1274;25507;-57
2023/01/28 20:48:41;;;;;;;32.50;21.90;;;;;;;3.26;76.35;101411.28;106632;1270;24442;-59
2023/01/28 20:51:14;;;;;;;31.60;22.90;;;;;;;3.27;76.23;101414.05;106584;1270;25400;-58
2023/01/28 20:53:42;;;;;;;31.20;22.40;;;;;;;3.27;75.70;101417.14;106600;1269;25398;-59
2023/01/28 20:56:11;;;;;;;32.10;22.20;;;;;;;3.26;75.76;101414.36;106710;1273;22524;-58
2023/01/28 20:58:39;;;;;;;28.70;21.80;;;;;;;3.26;75.86;101413.50;106680;1270;24144;-60
2023/01/28 21:01:07;;;;;;;30.20;20.50;;;;;;;3.26;75.75;101409.58;106516;1270;25576;-59
2023/01/28 21:03:34;;;;;;;28.60;20.50;;;;;;;3.25;75.78;101408.02;106624;1270;25419;-59
2023/01/28 21:06:02;;;;;;;28.30;21.00;;;;;;;3.26;75.63;101403.22;106703;1276;24339;-59
2023/01/28 21:08:29;;;;;;;29.10;22.00;;;;;;;3.24;75.27;101407.48;106888;1270;26659;-57
2023/01/28 21:11:00;;;;;;;30.10;21.60;;;;;;;3.23;75.49;101406.10;110359;1269;23164;-58
2023/01/28 21:13:27;;;;;;;24.90;19.40;;;;;;;3.25;75.28;101410.06;110159;1272;22070;-58
2023/01/28 21:15:55;;;;;;;28.70;21.00;;;;;;;3.27;75.45;101405.11;110346;1269;22276;-58
2023/01/28 21:18:23;;;;;;;27.20;21.20;;;;;;;3.29;74.77;101412.36;110568;1273;22391;-59
2023/01/28 21:20:52;;;;;;;28.00;21.10;;;;;;;3.33;74.80;101409.33;110733;1266;22282;-58
2023/01/28 21:23:21;;;;;;;27.90;20.90;;;;;;;3.33;74.70;101410.37;110357;1273;22636;-58
2023/01/28 21:25:50;;;;;;;30.20;21.70;;;;;;;3.27;74.71;101411.66;110750;1265;22281;-58
2023/01/28 21:28:18;;;;;;;29.50;21.80;;;;;;;3.28;74.58;101412.34;110508;1270;22184;-58
2023/01/28 21:30:45;;;;;;;30.80;21.10;;;;;;;3.31;74.32;101413.60;110506;1270;22261;-58
2023/01/28 21:33:15;;;;;;;27.50;20.90;;;;;;;3.34;74.40;101412.79;110445;1273;22382;-58
2023/01/28 21:35:42;;;;;;;27.10;20.80;;;;;;;3.40;74.30;101417.17;109943;1270;1002123;-58
2023/01/28 21:38:09;;;;;;;31.00;22.60;;;;;;;3.43;73.94;101417.73;109950;1273;1002865;-58
2023/01/28 21:40:37;;;;;;;26.90;20.90;;;;;;;3.43;73.71;101414.83;110719;1266;23117;-58
2023/01/28 21:43:04;;;;;;;26.30;21.10;;;;;;;3.41;73.75;101413.93;110694;1267;22151;-58
2023/01/28 21:45:31;;;;;;;30.60;20.30;;;;;;;3.41;73.87;101417.19;110703;1272;23225;-58
2023/01/28 21:47:58;;;;;;;28.50;21.80;;;;;;;3.41;73.59;101416.85;109817;1266;1002236;-58
2023/01/28 21:50:25;;;;;;;29.50;21.50;;;;;;;3.40;73.53;101414.95;109598;1273;1002534;-59
2023/01/28 21:52:52;;;;;;;28.70;21.10;;;;;;;3.40;73.69;101417.34;110725;1265;22418;-58
